Time;durP1;ratioP1;P1;durP2;ratioP2;P2;SDS_P1;SDS_P2;PMS_P1;PMS_P2;Temp;Humidity;BMP_temperature;BMP_pressure;BME280_temperature;BME280_humidity;BME280_pressure;Samples;Min_cycle;Max_cycle;Signal;HPM_P1;HPM_P2
2022/12/05 04:42:33;;;;;;;12.27;6.72;;;;;;;4.22;100.00;101067.69;5760956;27;20155;-85
2022/12/05 04:45:38;;;;;;;12.30;6.90;;;;;;;4.24;100.00;101069.28;5342269;33;34650;-85
2022/12/05 04:48:47;;;;;;;14.55;7.28;;;;;;;4.36;100.00;101055.94;5343470;33;33890;-85
2022/12/05 04:51:54;;;;;;;11.63;6.77;;;;;;;4.27;100.00;101063.72;5341996;33;34297;-85
2022/12/05 04:55:24;;;;;;;10.65;6.90;;;;;;;4.21;100.00;101058.00;5342288;33;34073;-85
2022/12/05 04:58:28;;;;;;;12.68;6.90;;;;;;;4.26;100.00;101056.66;5341678;33;34777;-85
2022/12/05 05:01:43;;;;;;;13.32;6.47;;;;;;;4.31;100.00;101054.50;5342699;33;34791;-85
2022/12/05 05:04:50;;;;;;;13.20;7.60;;;;;;;4.24;100.00;101047.97;5329136;33;32202;-85
2022/12/05 05:07:53;;;;;;;12.20;6.87;;;;;;;4.25;100.00;101041.66;5345446;33;34044;-85
2022/12/05 05:11:11;;;;;;;13.70;6.95;;;;;;;4.29;100.00;101047.59;5344317;33;34331;-85
2022/12/05 05:14:14;;;;;;;14.55;7.57;;;;;;;4.26;100.00;101048.66;5324666;33;33951;-85
2022/12/05 05:17:16;;;;;;;12.45;7.20;;;;;;;4.25;100.00;101038.16;5325735;33;34711;-86
2022/12/05 05:20:26;;;;;;;11.43;7.18;;;;;;;4.21;100.00;101050.87;5340684;33;34746;-84
2022/12/05 05:23:29;;;;;;;;;;;;;;;4.23;100.00;101048.06;5329030;33;35336;-85
2022/12/05 05:26:39;;;;;;;12.45;6.22;;;;;;;4.22;100.00;101051.72;5313393;33;34882;-85
2022/12/05 05:29:42;;;;;;;13.20;7.15;;;;;;;4.35;100.00;101054.25;5326777;33;33693;-85
2022/12/05 05:32:45;;;;;;;12.13;7.10;;;;;;;4.40;100.00;101068.06;5330097;33;35046;-85
2022/12/05 05:35:48;;;;;;;13.50;7.18;;;;;;;4.40;100.00;101084.06;5329493;33;34120;-84
2022/12/05 05:38:56;;;;;;;13.75;7.32;;;;;;;4.44;100.00;101075.69;5330423;33;34384;-84
2022/12/05 05:41:59;;;;;;;14.43;8.07;;;;;;;4.44;100.00;101062.34;5318666;33;32367;-88
2022/12/05 05:45:02;;;;;;;11.52;6.65;;;;;;;4.40;100.00;101062.75;5335858;33;35304;-86
2022/12/05 05:48:05;;;;;;;12.93;7.07;;;;;;;4.40;100.00;101062.75;5342244;33;34693;-86
2022/12/05 05:51:09;;;;;;;12.55;7.65;;;;;;;4.40;100.00;101071.59;5336351;33;34698;-86
2022/12/05 05:54:12;;;;;;;13.05;7.25;;;;;;;4.44;100.00;101069.50;5336067;33;34462;-85
2022/12/05 05:57:15;;;;;;;10.43;6.90;;;;;;;4.39;100.00;101079.69;5340813;33;35400;-85
2022/12/05 06:00:22;;;;;;;11.77;7.47;;;;;;;4.42;100.00;101071.47;5340982;33;34496;-85
2022/12/05 06:03:25;;;;;;;14.63;7.37;;;;;;;4.37;100.00;101079.81;5332427;33;33903;-84
2022/12/05 06:06:27;;;;;;;12.98;7.97;;;;;;;4.45;100.00;101076.56;5334260;33;34087;-85
2022/12/05 06:09:31;;;;;;;14.65;8.70;;;;;;;4.57;100.00;101072.06;5328292;33;34171;-84
2022/12/05 06:12:33;;;;;;;15.43;8.10;;;;;;;4.45;100.00;101080.06;5338188;33;34146;-85
2022/12/05 06:15:37;;;;;;;13.95;7.53;;;;;;;4.49;100.00;101078.84;5328134;33;33350;-84
2022/12/05 06:18:40;;;;;;;17.42;8.50;;;;;;;4.47;100.00;101082.59;5326802;33;32643;-84
2022/12/05 06:21:43;;;;;;;16.17;8.63;;;;;;;4.53;100.00;101095.44;5326440;33;34863;-85
2022/12/05 06:24:46;;;;;;;13.50;8.35;;;;;;;4.46;100.00;101096.91;5325927;33;33496;-84
2022/12/05 06:27:49;;;;;;;13.93;8.65;;;;;;;4.36;100.00;101095.91;5324995;33;33633;-85
2022/12/05 06:30:53;;;;;;;14.65;7.75;;;;;;;4.41;100.00;101094.59;5329984;33;34127;-88
2022/12/05 06:34:01;;;;;;;14.60;8.27;;;;;;;4.48;100.00;101097.66;5333945;33;33804;-89
2022/12/05 06:37:04;;;;;;;14.93;8.23;;;;;;;4.46;100.00;101095.09;5333964;33;34905;-86
2022/12/05 06:40:08;;;;;;;17.15;8.27;;;;;;;4.57;100.00;101098.75;5336757;33;34319;-86
2022/12/05 06:43:11;;;;;;;17.02;9.20;;;;;;;4.47;100.00;101099.44;5333542;33;34770;-86
2022/12/05 06:46:16;;;;;;;14.45;8.73;;;;;;;4.57;100.00;101099.59;5333372;33;34747;-86
2022/12/05 06:49:19;;;;;;;14.50;8.98;;;;;;;4.62;100.00;101100.06;5328768;33;34642;-86
2022/12/05 06:52:29;;;;;;;15.70;8.57;;;;;;;4.60;100.00;101101.16;5327038;33;34496;-86
2022/12/05 06:55:31;;;;;;;15.98;8.95;;;;;;;4.61;100.00;101102.84;5326210;33;34534;-86
2022/12/05 06:58:34;;;;;;;17.58;9.07;;;;;;;4.58;100.00;101109.28;5320064;33;190858;-86
2022/12/05 07:01:37;;;;;;;14.70;8.85;;;;;;;4.62;100.00;101100.06;5328218;33;33577;-86
2022/12/05 07:04:40;;;;;;;16.67;8.85;;;;;;;4.56;100.00;101103.19;5338009;33;34768;-86
2022/12/05 07:07:42;;;;;;;14.50;8.93;;;;;;;4.55;100.00;101110.34;5337262;33;33887;-86
2022/12/05 07:10:52;;;;;;;16.23;8.55;;;;;;;4.63;100.00;101115.09;5344277;33;34077;-86
2022/12/05 07:13:54;;;;;;;14.43;8.55;;;;;;;4.68;100.00;101128.94;5344650;33;35153;-85
2022/12/05 07:16:57;;;;;;;15.35;8.93;;;;;;;4.66;100.00;101128.19;5334583;33;33875;-86
2022/12/05 07:20:00;;;;;;;16.25;8.82;;;;;;;4.60;100.00;101128.69;5347030;33;34179;-86
2022/12/05 07:23:03;;;;;;;18.90;9.75;;;;;;;4.59;100.00;101131.44;5352600;33;36034;-86
2022/12/05 07:26:08;;;;;;;16.08;8.57;;;;;;;4.60;100.00;101123.34;5358348;33;34057;-86
2022/12/05 07:29:11;;;;;;;18.77;9.00;;;;;;;4.74;100.00;101124.94;5347287;33;35713;-84
2022/12/05 07:32:14;;;;;;;15.00;8.60;;;;;;;4.82;100.00;101133.16;5333166;33;34480;-86
2022/12/05 07:35:17;;;;;;;15.98;9.95;;;;;;;4.86;100.00;101131.09;5336588;33;33319;-85
2022/12/05 07:38:19;;;;;;;14.43;8.93;;;;;;;4.85;100.00;101130.22;5332339;33;34420;-86
2022/12/05 07:41:25;;;;;;;16.50;8.95;;;;;;;4.79;100.00;101133.38;5338877;33;34316;-85
2022/12/05 07:44:27;;;;;;;14.93;8.73;;;;;;;4.85;100.00;101142.72;5356067;33;35003;-86
2022/12/05 07:47:30;;;;;;;14.43;8.27;;;;;;;5.05;100.00;101139.31;5346338;33;34029;-86
2022/12/05 07:50:33;;;;;;;14.35;8.15;;;;;;;5.03;100.00;101148.41;5346048;33;34879;-86
2022/12/05 07:53:37;;;;;;;13.88;7.50;;;;;;;5.20;100.00;101148.75;5349233;33;35436;-85
2022/12/05 07:56:40;;;;;;;15.00;8.90;;;;;;;5.31;100.00;101149.72;5345500;33;35129;-85
2022/12/05 07:59:49;;;;;;;14.30;8.90;;;;;;;5.30;100.00;101150.69;5333714;33;33550;-84
2022/12/05 08:02:51;;;;;;;13.88;8.38;;;;;;;5.15;100.00;101158.13;5343629;33;34147;-85
2022/12/05 08:05:54;;;;;;;11.73;6.72;;;;;;;5.25;100.00;101152.88;5330076;33;33511;-85
2022/12/05 08:08:57;;;;;;;13.15;8.18;;;;;;;5.29;100.00;101148.97;5335765;33;34950;-85
2022/12/05 08:12:00;;;;;;;13.48;8.43;;;;;;;5.35;100.00;101146.69;5337898;33;34075;-84
2022/12/05 08:15:03;;;;;;;10.95;7.57;;;;;;;5.42;100.00;101147.88;5316975;33;33175;-84
2022/12/05 08:18:06;;;;;;;12.27;7.97;;;;;;;5.46;100.00;101161.81;5328022;33;34122;-84
2022/12/05 08:21:12;;;;;;;13.62;7.05;;;;;;;5.45;100.00;101162.78;5334905;33;33471;-84
2022/12/05 08:24:14;;;;;;;11.40;7.85;;;;;;;5.29;100.00;101163.16;5312636;33;32245;-85
2022/12/05 08:27:17;;;;;;;12.37;7.97;;;;;;;5.38;100.00;101159.78;5328327;33;34208;-85
2022/12/05 08:30:20;;;;;;;12.63;7.53;;;;;;;5.40;100.00;101155.13;5338016;33;33996;-85
2022/12/05 08:33:23;;;;;;;10.57;7.65;;;;;;;5.40;100.00;101160.47;5338182;33;33951;-87
2022/12/05 08:36:28;;;;;;;15.60;7.85;;;;;;;5.57;100.00;101166.28;5355809;33;35365;-86
2022/12/05 08:39:31;;;;;;;12.98;8.32;;;;;;;5.58;100.00;101166.13;5342373;33;35449;-90
2022/12/05 08:42:40;;;;;;;11.23;7.70;;;;;;;5.64;100.00;101172.78;5336412;33;34073;-86
2022/12/05 08:45:49;;;;;;;11.40;7.30;;;;;;;5.65;100.00;101174.50;5323775;33;33253;-86
2022/12/05 08:48:52;;;;;;;10.98;7.68;;;;;;;5.75;100.00;101169.25;5332051;33;34100;-86
2022/12/05 08:51:54;;;;;;;11.95;8.10;;;;;;;5.61;100.00;101165.87;5335033;33;34376;-86
2022/12/05 08:54:57;;;;;;;12.15;8.40;;;;;;;5.63;100.00;101163.94;5332154;33;33925;-85
2022/12/05 08:58:00;;;;;;;13.43;8.43;;;;;;;5.67;100.00;101159.19;5331864;33;34262;-86
2022/12/05 09:01:12;;;;;;;12.00;8.27;;;;;;;5.77;100.00;101162.81;5334784;33;34334;-86
2022/12/05 09:04:15;;;;;;;12.45;7.68;;;;;;;5.62;100.00;101161.41;5337870;33;33920;-86
2022/12/05 09:07:17;;;;;;;11.32;8.63;;;;;;;5.64;100.00;101151.44;5326824;33;34874;-86
2022/12/05 09:10:20;;;;;;;13.48;8.73;;;;;;;5.77;100.00;101168.16;5323189;33;33357;-86
2022/12/05 09:13:23;;;;;;;15.10;9.00;;;;;;;5.81;100.00;101166.06;5331521;33;34733;-86
2022/12/05 09:16:29;;;;;;;12.45;8.73;;;;;;;5.70;100.00;101161.59;5328737;33;34290;-86
2022/12/05 09:19:41;;;;;;;14.73;9.00;;;;;;;5.71;100.00;101160.66;5347104;33;33707;-85
2022/12/05 09:22:44;;;;;;;13.20;8.43;;;;;;;5.83;100.00;101154.28;5339948;33;34617;-86
2022/12/05 09:25:57;;;;;;;12.00;8.07;;;;;;;5.93;100.00;101153.50;5315226;33;32452;-85
2022/12/05 09:29:01;;;;;;;14.20;8.80;;;;;;;6.10;100.00;101147.62;5338917;33;33982;-86
2022/12/05 09:32:04;;;;;;;13.77;8.80;;;;;;;6.18;100.00;101145.16;5325962;33;32837;-86
2022/12/05 09:35:07;;;;;;;12.37;8.70;;;;;;;6.28;100.00;101150.53;5333772;33;33704;-86
2022/12/05 09:38:10;;;;;;;12.18;8.05;;;;;;;6.52;100.00;101150.25;5315954;33;33473;-86
2022/12/05 09:45:01;;;;;;;11.90;8.48;;;;;;;6.22;100.00;101148.41;5310927;33;34708;-86
2022/12/05 09:48:14;;;;;;;12.30;8.98;;;;;;;6.24;100.00;101146.44;5317603;33;34689;-85
2022/12/05 09:51:17;;;;;;;12.02;8.52;;;;;;;6.22;100.00;101133.19;5310138;33;33539;-90
2022/12/05 09:54:21;;;;;;;11.52;8.00;;;;;;;6.20;100.00;101137.84;5315108;33;34247;-86
2022/12/05 09:57:32;;;;;;;15.18;8.60;;;;;;;6.22;100.00;101137.72;5300552;33;32768;-86
2022/12/05 10:00:35;;;;;;;12.07;8.00;;;;;;;6.29;100.00;101134.38;5322808;33;33869;-86
2022/12/05 10:03:48;;;;;;;11.12;8.43;;;;;;;6.19;100.00;101136.13;5293639;33;33572;-85
2022/12/05 10:07:14;;;;;;;14.50;9.18;;;;;;;6.32;100.00;101130.59;5322936;33;34797;-86
2022/12/05 10:10:35;;;;;;;13.82;8.48;;;;;;;6.40;100.00;101130.78;5304839;33;32206;-86
2022/12/05 10:13:37;;;;;;;13.95;9.30;;;;;;;6.29;100.00;101117.50;5327522;33;33036;-85
2022/12/05 10:16:47;;;;;;;13.40;9.20;;;;;;;6.30;100.00;101127.22;5302009;33;32060;-86
2022/12/05 10:19:51;;;;;;;;;;;;;;;6.40;100.00;101124.56;5311367;33;34718;-86
2022/12/05 10:23:20;;;;;;;12.93;8.75;;;;;;;6.31;100.00;101119.03;5323484;33;34312;-85
2022/12/05 10:26:45;;;;;;;13.70;9.38;;;;;;;6.38;100.00;101119.38;5312536;33;32401;-85
2022/12/05 10:30:01;;;;;;;13.18;9.07;;;;;;;6.42;100.00;101110.09;5325280;33;33932;-85
2022/12/05 10:33:13;;;;;;;13.85;9.27;;;;;;;6.57;100.00;101106.06;5304481;33;32622;-90
2022/12/05 10:36:16;;;;;;;13.02;8.95;;;;;;;6.68;100.00;101098.97;5308556;33;33605;-86
2022/12/05 10:39:19;;;;;;;12.57;8.73;;;;;;;6.69;100.00;101101.47;5320256;33;32425;-86
2022/12/05 10:42:28;;;;;;;12.30;9.25;;;;;;;6.74;100.00;101095.75;5317199;33;34089;-85
2022/12/05 10:45:31;;;;;;;14.77;9.30;;;;;;;6.94;100.00;101081.44;5328063;33;33550;-86
2022/12/05 10:48:36;;;;;;;11.80;9.00;;;;;;;7.21;100.00;101077.25;5324889;33;34450;-86
2022/12/05 10:51:39;;;;;;;13.20;9.57;;;;;;;7.25;100.00;101075.97;5329271;33;33631;-86
2022/12/05 10:54:48;;;;;;;12.95;9.85;;;;;;;7.22;100.00;101077.09;5323527;33;33729;-86
2022/12/05 10:58:07;;;;;;;14.38;9.68;;;;;;;6.89;100.00;101070.28;5333036;33;34851;-86
2022/12/05 11:01:18;;;;;;;13.07;9.40;;;;;;;7.09;100.00;101065.81;5346163;33;32535;-86
2022/12/05 11:04:29;;;;;;;13.65;9.48;;;;;;;7.17;100.00;101070.50;5328898;33;32188;-85
2022/12/05 11:07:44;;;;;;;;;;;;;;;7.03;100.00;101077.94;5329950;33;34069;-86
2022/12/05 11:10:47;;;;;;;14.63;9.00;;;;;;;6.97;100.00;101070.44;5335031;33;34512;-85
2022/12/05 11:13:56;;;;;;;12.52;9.32;;;;;;;6.94;100.00;101068.06;5344364;33;34706;-85
2022/12/05 11:17:00;;;;;;;13.05;9.15;;;;;;;7.05;100.00;101061.75;5342155;33;35168;-85
2022/12/05 11:20:23;;;;;;;12.32;9.25;;;;;;;7.02;100.00;101059.34;5342422;33;33900;-85
2022/12/05 11:23:28;;;;;;;14.07;10.30;;;;;;;6.99;100.00;101052.44;5325718;33;33363;-85
2022/12/05 11:26:36;;;;;;;12.57;9.38;;;;;;;6.91;100.00;101049.59;5328958;33;32574;-85
2022/12/05 11:29:39;;;;;;;12.85;10.02;;;;;;;6.93;100.00;101049.44;5338761;33;33803;-85
2022/12/05 11:32:42;;;;;;;15.10;9.48;;;;;;;6.89;100.00;101046.19;5334445;33;34165;-88
2022/12/05 11:35:47;;;;;;;14.07;9.88;;;;;;;6.80;100.00;101055.06;5330027;33;33310;-87
2022/12/05 11:38:57;;;;;;;15.13;10.95;;;;;;;6.87;100.00;101060.69;5327330;33;33097;-89
2022/12/05 11:42:15;;;;;;;13.35;10.35;;;;;;;6.89;100.00;101059.56;5315657;33;33218;-85
2022/12/05 11:45:18;;;;;;;14.43;10.10;;;;;;;6.76;100.00;101041.09;5333779;33;33072;-86
2022/12/05 11:48:47;;;;;;;16.17;10.75;;;;;;;6.72;100.00;101042.34;5343176;33;34182;-84
2022/12/05 11:52:23;;;;;;;14.85;10.45;;;;;;;6.76;100.00;101038.44;5329593;33;34158;-84
2022/12/05 11:55:33;;;;;;;18.83;11.30;;;;;;;6.79;100.00;101022.09;5324241;33;33165;-85
2022/12/05 11:59:00;;;;;;;16.05;11.45;;;;;;;6.68;100.00;101024.03;5340313;33;33253;-85
2022/12/05 12:02:15;;;;;;;16.83;11.27;;;;;;;6.77;100.00;101021.38;5333423;33;32789;-85
2022/12/05 12:05:39;;;;;;;17.20;12.52;;;;;;;6.58;100.00;101022.19;5332266;33;34031;-85
2022/12/05 12:09:07;;;;;;;18.02;13.18;;;;;;;6.54;100.00;101017.22;5344800;33;33915;-89
2022/12/05 12:12:20;;;;;;;16.83;12.15;;;;;;;6.69;100.00;101023.87;5343043;33;34470;-85
2022/12/05 12:15:42;;;;;;;20.05;12.35;;;;;;;6.56;100.00;101015.28;5348111;33;34069;-85
2022/12/05 12:19:14;;;;;;;18.58;13.02;;;;;;;6.64;100.00;101007.41;5347918;33;32563;-85
2022/12/05 12:22:45;;;;;;;18.87;12.15;;;;;;;6.56;100.00;101007.25;5345692;33;32543;-85
2022/12/05 12:26:13;;;;;;;22.73;14.45;;;;;;;6.53;100.00;101004.84;5326083;33;32754;-85
2022/12/05 12:29:34;;;;;;;23.02;14.27;;;;;;;6.58;100.00;101007.94;5337179;33;34768;-85
2022/12/05 12:32:43;;;;;;;24.50;15.45;;;;;;;6.61;100.00;101002.34;5330374;33;34543;-89
2022/12/05 12:35:52;;;;;;;24.45;15.23;;;;;;;6.53;100.00;101005.69;5333850;33;34429;-85
2022/12/05 12:39:23;;;;;;;24.65;14.23;;;;;;;6.66;100.00;100996.56;5328902;33;35539;-85
2022/12/05 12:42:37;;;;;;;28.40;15.68;;;;;;;6.72;100.00;100993.34;5334371;33;34186;-85
2022/12/05 12:46:15;;;;;;;25.20;15.68;;;;;;;6.73;100.00;100990.53;5337993;33;33823;-85
2022/12/05 12:49:23;;;;;;;21.95;13.80;;;;;;;6.73;100.00;100987.84;5313342;33;32585;-85
2022/12/05 12:52:41;;;;;;;18.77;12.27;;;;;;;6.80;100.00;100986.31;5330897;33;33283;-85
2022/12/05 12:55:53;;;;;;;16.33;11.38;;;;;;;6.73;100.00;100995.03;5333241;33;33651;-85
2022/12/05 12:59:23;;;;;;;18.60;11.68;;;;;;;6.83;100.00;100990.53;5327575;33;33870;-85
2022/12/05 13:02:45;;;;;;;;;;;;;;;6.73;100.00;100985.19;5346488;33;34923;-89
2022/12/05 13:05:53;;;;;;;16.62;11.30;;;;;;;6.69;100.00;100985.59;5337057;33;33888;-85
2022/12/05 13:09:01;;;;;;;15.85;10.52;;;;;;;6.65;100.00;100982.34;5338707;33;34131;-86
2022/12/05 13:12:10;;;;;;;16.92;10.57;;;;;;;6.77;100.00;100981.22;5330804;33;35005;-85
2022/12/05 13:15:17;;;;;;;16.87;11.60;;;;;;;6.51;100.00;100985.41;5333409;33;35222;-85
2022/12/05 13:18:23;;;;;;;16.67;11.45;;;;;;;6.48;100.00;100981.16;5325413;33;33691;-85
2022/12/05 13:21:27;;;;;;;16.90;11.98;;;;;;;6.42;100.00;100979.03;5346783;33;34230;-85
2022/12/05 13:24:30;;;;;;;19.10;12.13;;;;;;;6.40;100.00;100975.66;5341817;33;33839;-85
2022/12/05 13:27:33;;;;;;;18.33;12.52;;;;;;;6.41;100.00;100981.88;5340354;33;34997;-84
2022/12/05 13:30:56;;;;;;;19.98;12.75;;;;;;;6.26;100.00;100976.03;5341153;33;35227;-84
2022/12/05 13:33:59;;;;;;;16.48;11.70;;;;;;;6.47;100.00;100979.50;5337720;33;35289;-85
2022/12/05 13:44:02;;;;;;;17.83;12.48;;;;;;;6.48;100.00;100972.31;5329389;33;33151;-85
2022/12/05 13:47:27;;;;;;;18.08;12.13;;;;;;;6.42;100.00;100980.88;5342705;33;33709;-85
2022/12/05 13:50:59;;;;;;;17.83;12.27;;;;;;;6.50;100.00;100979.22;5346731;33;34164;-86
2022/12/05 13:54:20;;;;;;;19.05;12.35;;;;;;;6.55;100.00;100976.97;5353883;33;34085;-85
2022/12/05 13:57:46;;;;;;;21.73;13.70;;;;;;;6.55;100.00;100976.97;5348399;33;35335;-85
2022/12/05 14:00:50;;;;;;;22.95;13.18;;;;;;;6.57;100.00;100976.81;5343669;33;33817;-86
2022/12/05 14:03:57;;;;;;;22.30;14.02;;;;;;;6.52;100.00;100979.06;5329057;33;33991;-86
2022/12/05 14:06:59;;;;;;;23.40;13.15;;;;;;;6.54;100.00;100987.81;5326328;33;33410;-85
2022/12/05 14:10:03;;;;;;;23.10;13.60;;;;;;;6.54;100.00;100996.66;5326864;33;34449;-85
2022/12/05 14:13:15;;;;;;;21.62;13.13;;;;;;;6.58;100.00;100983.84;5312256;33;33129;-85
2022/12/05 14:16:24;;;;;;;26.33;14.02;;;;;;;6.57;100.00;100980.34;5325975;33;33930;-85
2022/12/05 14:19:43;;;;;;;21.55;13.57;;;;;;;6.54;100.00;100979.78;5312373;33;32655;-85
2022/12/05 14:23:12;;;;;;;22.10;12.82;;;;;;;6.56;100.00;100978.66;5325153;33;33695;-85
2022/12/05 14:26:35;;;;;;;20.35;13.85;;;;;;;6.48;100.00;100974.97;5335600;33;34483;-90
2022/12/05 14:30:01;;;;;;;22.87;14.43;;;;;;;6.50;100.00;100965.84;5325471;33;34348;-86
2022/12/05 14:33:13;;;;;;;20.02;12.65;;;;;;;6.45;100.00;100969.91;5325968;33;33496;-85
2022/12/05 14:36:27;;;;;;;22.30;13.73;;;;;;;6.30;100.00;100970.28;5331603;33;32919;-84
2022/12/05 14:39:43;;;;;;;18.83;13.48;;;;;;;6.36;100.00;100980.44;5323599;33;34753;-84
2022/12/05 14:42:54;;;;;;;18.27;12.52;;;;;;;6.40;100.00;100985.50;5322481;33;32604;-84
2022/12/05 14:46:01;;;;;;;18.45;12.32;;;;;;;6.40;100.00;100977.47;5329264;33;34872;-85
2022/12/05 14:49:34;;;;;;;20.23;11.93;;;;;;;6.40;100.00;100972.97;5329162;33;34028;-85
2022/12/05 14:52:43;;;;;;;17.70;11.70;;;;;;;6.37;100.00;100973.25;5336712;33;32683;-85
2022/12/05 14:56:10;;;;;;;18.02;12.07;;;;;;;6.39;100.00;100959.75;5326230;33;33146;-86
2022/12/05 14:59:27;;;;;;;20.27;12.35;;;;;;;6.34;100.00;100968.16;5341139;33;33845;-85
2022/12/05 15:02:35;;;;;;;19.12;13.50;;;;;;;6.29;100.00;100963.25;5340777;33;34052;-87
2022/12/05 15:05:41;;;;;;;18.62;12.93;;;;;;;6.44;100.00;100957.53;5343104;33;34893;-85
2022/12/05 15:08:48;;;;;;;20.83;13.27;;;;;;;6.51;100.00;100955.97;5330670;33;34697;-86
2022/12/05 15:11:51;;;;;;;21.00;13.25;;;;;;;6.42;100.00;100963.00;5342500;33;33922;-86
2022/12/05 15:15:23;;;;;;;19.27;12.82;;;;;;;6.44;100.00;100960.19;5343397;33;33907;-86
2022/12/05 15:18:48;;;;;;;17.80;11.63;;;;;;;6.44;100.00;100961.03;5329060;33;33707;-86
2022/12/05 15:21:55;;;;;;;20.80;12.93;;;;;;;6.48;100.00;100959.78;5343765;33;34227;-85
2022/12/05 15:25:13;;;;;;;20.90;12.65;;;;;;;6.50;100.00;100955.13;5330358;33;32994;-85
2022/12/05 15:28:18;;;;;;;18.85;12.02;;;;;;;6.54;100.00;100953.88;5330408;33;32739;-86
2022/12/05 15:31:22;;;;;;;19.08;12.35;;;;;;;6.49;100.00;100957.94;5343109;33;33581;-86
2022/12/05 15:34:31;;;;;;;16.92;12.27;;;;;;;6.41;100.00;100950.62;5327791;33;32582;-86
2022/12/05 15:37:45;;;;;;;22.52;12.68;;;;;;;6.40;100.00;100951.56;5330532;33;33968;-85
2022/12/05 15:40:49;;;;;;;19.17;11.73;;;;;;;6.54;100.00;100950.34;5331112;33;32668;-90
2022/12/05 15:43:56;;;;;;;18.75;12.18;;;;;;;6.43;100.00;100945.13;5334591;33;34239;-86
2022/12/05 15:46:59;;;;;;;20.85;12.73;;;;;;;6.32;100.00;100930.88;5335330;33;32289;-86
2022/12/05 15:50:03;;;;;;;17.37;11.02;;;;;;;6.34;100.00;100925.37;5335669;33;32666;-86
2022/12/05 15:53:27;;;;;;;21.02;12.32;;;;;;;6.44;100.00;100925.44;5324840;33;34215;-86
2022/12/05 15:56:36;;;;;;;19.37;12.23;;;;;;;6.44;100.00;100926.28;5335385;33;32716;-85
2022/12/05 15:59:46;;;;;;;21.77;13.20;;;;;;;6.43;100.00;100924.56;5324251;33;34052;-86
2022/12/05 16:03:12;;;;;;;23.87;13.65;;;;;;;6.46;100.00;100932.31;5323800;33;33813;-86
2022/12/05 16:06:23;;;;;;;23.50;12.77;;;;;;;6.49;100.00;100925.84;5309159;33;34010;-86
2022/12/05 16:09:30;;;;;;;19.37;11.88;;;;;;;6.63;100.00;100924.59;5326949;33;34210;-86
2022/12/05 16:12:38;;;;;;;17.87;11.50;;;;;;;6.67;100.00;100917.97;5325372;33;33658;-86
2022/12/05 16:15:45;;;;;;;20.37;12.25;;;;;;;6.51;100.00;100922.03;5324859;33;34569;-86
2022/12/05 16:18:57;;;;;;;19.55;11.88;;;;;;;6.49;100.00;100939.22;5336245;33;32906;-86
2022/12/05 16:22:08;;;;;;;17.83;11.05;;;;;;;6.46;100.00;100943.00;5325535;33;34554;-86
2022/12/05 16:25:15;;;;;;;17.85;10.90;;;;;;;6.44;100.00;100936.13;5336441;33;32472;-86
2022/12/05 16:28:19;;;;;;;17.27;11.75;;;;;;;6.44;100.00;100934.28;5337550;33;32115;-86
2022/12/05 16:31:22;;;;;;;18.73;11.52;;;;;;;6.37;100.00;100935.81;5337963;33;32295;-86
2022/12/05 16:34:26;;;;;;;16.67;10.95;;;;;;;6.41;100.00;100931.06;5332955;33;33666;-86
2022/12/05 16:37:29;;;;;;;16.30;10.85;;;;;;;6.50;100.00;100930.22;5323564;33;33263;-86
2022/12/05 16:40:38;;;;;;;19.48;11.10;;;;;;;6.49;100.00;100937.41;5328744;33;34941;-87
2022/12/05 16:43:44;;;;;;;18.42;10.52;;;;;;;6.43;100.00;100935.25;5325361;33;34627;-89
2022/12/05 16:46:47;;;;;;;19.95;11.20;;;;;;;6.45;100.00;100938.66;5348448;33;32442;-89
2022/12/05 16:49:55;;;;;;;16.87;10.30;;;;;;;6.66;100.00;100935.03;5335879;33;34930;-85
2022/12/05 16:53:06;;;;;;;17.95;10.82;;;;;;;6.62;100.00;100931.78;5340532;33;35260;-85
2022/12/05 16:56:17;;;;;;;18.12;10.35;;;;;;;6.58;100.00;100941.94;5328581;33;35454;-86
2022/12/05 16:59:32;;;;;;;15.75;10.32;;;;;;;6.56;100.00;100941.22;5336900;33;32255;-85
2022/12/05 17:02:35;;;;;;;18.40;10.40;;;;;;;6.52;100.00;100941.59;5336673;33;32881;-85
2022/12/05 17:05:38;;;;;;;17.42;10.27;;;;;;;6.55;100.00;100944.00;5325272;33;34681;-85
2022/12/05 17:08:41;;;;;;;16.23;10.82;;;;;;;6.55;100.00;100933.31;5326921;33;33930;-86
